Time;durP1;ratioP1;P1;durP2;ratioP2;P2;SDS_P1;SDS_P2;PMS_P1;PMS_P2;Temp;Humidity;BMP_temperature;BMP_pressure;BME280_temperature;BME280_humidity;BME280_pressure;Samples;Min_cycle;Max_cycle;Signal;HPM_P1;HPM_P2
2021/12/24 00:01:55;;;;;;;12.75;8.70;;;6.10;99.90;;;;;;476834;248;27701;-70
2021/12/24 00:03:56;;;;;;;13.35;8.45;;;6.10;99.90;;;;;;476846;249;27628;-70
2021/12/24 00:05:57;;;;;;;10.50;7.93;;;6.10;99.90;;;;;;476798;249;28034;-70
2021/12/24 00:07:59;;;;;;;11.95;8.15;;;6.10;99.90;;;;;;476849;249;28065;-70
2021/12/24 00:10:00;;;;;;;19.02;9.20;;;6.10;99.90;;;;;;476826;248;27647;-70
2021/12/24 00:12:05;;;;;;;13.90;8.40;;;6.20;99.90;;;;;;476853;249;27547;-70
2021/12/24 00:14:04;;;;;;;10.50;7.75;;;6.20;99.90;;;;;;476558;249;27620;-70
2021/12/24 00:16:16;;;;;;;10.30;7.62;;;6.20;99.90;;;;;;476724;248;27643;-70
2021/12/24 00:18:18;;;;;;;9.85;7.53;;;6.20;99.90;;;;;;476135;249;27580;-70
2021/12/24 00:20:47;;;;;;;11.80;8.07;;;6.20;99.90;;;;;;475973;249;27515;-70
2021/12/24 00:38:10;;;;;;;10.50;6.80;;;6.20;99.90;;;;;;492427;237;27415;-71
2021/12/24 00:40:16;;;;;;;9.13;6.82;;;6.20;99.90;;;;;;492203;241;27514;-71
2021/12/24 00:42:14;;;;;;;10.38;7.30;;;6.20;99.90;;;;;;492044;241;27513;-71
2021/12/24 00:44:14;;;;;;;11.15;7.97;;;6.20;99.90;;;;;;492301;241;27961;-71
2021/12/24 00:46:15;;;;;;;12.27;7.57;;;6.20;99.90;;;;;;492310;241;27918;-71
2021/12/24 00:48:17;;;;;;;10.68;8.05;;;6.20;99.90;;;;;;492308;241;27611;-71
2021/12/24 00:50:20;;;;;;;10.18;8.02;;;6.20;99.90;;;;;;492285;241;27466;-71
2021/12/24 00:55:06;;;;;;;11.35;7.40;;;6.20;99.90;;;;;;492296;241;27466;-71
2021/12/24 00:56:37;;;;;;;9.25;6.95;;;6.20;99.90;;;;;;490788;241;27501;-71
2021/12/24 00:58:38;;;;;;;13.80;8.35;;;6.20;99.90;;;;;;492321;241;27490;-71
2021/12/24 01:00:39;;;;;;;10.80;8.07;;;6.20;99.90;;;;;;492316;241;27485;-71
2021/12/24 01:02:40;;;;;;;9.77;6.97;;;6.20;99.90;;;;;;491922;241;27526;-71
2021/12/24 01:04:42;;;;;;;10.02;7.60;;;6.20;99.90;;;;;;492315;241;27481;-71
2021/12/24 01:06:43;;;;;;;11.35;7.90;;;6.20;99.90;;;;;;485032;237;27581;-71
2021/12/24 01:08:44;;;;;;;13.95;8.10;;;6.30;99.90;;;;;;471553;252;27485;-71
2021/12/24 01:10:46;;;;;;;16.90;8.00;;;6.30;99.90;;;;;;471532;252;27593;-71
2021/12/24 01:12:47;;;;;;;11.48;7.15;;;6.30;99.90;;;;;;471566;252;27464;-71
2021/12/24 01:14:49;;;;;;;10.75;7.10;;;6.40;99.90;;;;;;471569;252;27528;-71
2021/12/24 01:17:05;;;;;;;14.10;7.43;;;6.30;99.90;;;;;;473296;243;28011;-71
2021/12/24 01:19:09;;;;;;;13.10;6.90;;;6.30;99.90;;;;;;481025;245;27467;-71
2021/12/24 01:22:07;;;;;;;9.25;6.90;;;6.30;99.90;;;;;;487141;241;27506;-70
2021/12/24 01:25:31;;;;;;;9.85;7.03;;;6.40;99.90;;;;;;487739;244;27447;-71
2021/12/24 01:28:28;;;;;;;9.82;6.70;;;6.40;99.90;;;;;;487213;243;27478;-71
2021/12/24 01:29:57;;;;;;;10.15;6.55;;;6.40;99.90;;;;;;484933;244;27498;-71
2021/12/24 01:38:34;;;;;;;10.02;6.87;;;6.50;99.90;;;;;;487724;243;27530;-71
2021/12/24 01:41:19;;;;;;;9.50;6.78;;;6.50;99.90;;;;;;487133;243;27549;-71
2021/12/24 01:42:44;;;;;;;12.13;7.70;;;6.50;99.90;;;;;;485249;244;27578;-70
2021/12/24 01:44:43;;;;;;;8.70;6.37;;;6.50;99.90;;;;;;487539;243;27530;-71
2021/12/24 01:46:44;;;;;;;9.75;7.45;;;6.50;99.90;;;;;;487742;243;27506;-70
2021/12/24 01:48:45;;;;;;;9.07;7.07;;;6.50;99.90;;;;;;487711;243;27566;-71
2021/12/24 01:50:47;;;;;;;11.68;7.43;;;6.50;99.90;;;;;;487682;243;27593;-71
2021/12/24 01:52:49;;;;;;;8.70;6.25;;;6.50;99.90;;;;;;487769;244;28361;-71
2021/12/24 01:54:49;;;;;;;8.77;6.87;;;6.50;99.90;;;;;;487667;243;27893;-71
2021/12/24 01:56:50;;;;;;;9.32;6.22;;;6.40;99.90;;;;;;487744;243;27439;-71
2021/12/24 01:58:52;;;;;;;9.35;6.68;;;6.40;99.90;;;;;;487730;243;28054;-71
2021/12/24 02:00:53;;;;;;;8.88;6.70;;;6.40;99.90;;;;;;487715;243;28081;-71
2021/12/24 02:02:54;;;;;;;8.18;6.55;;;6.40;99.90;;;;;;487732;243;27532;-71
2021/12/24 02:04:55;;;;;;;8.88;7.03;;;6.40;99.90;;;;;;487737;243;27422;-71
2021/12/24 02:06:57;;;;;;;9.45;6.57;;;6.40;99.90;;;;;;491562;237;27477;-71
2021/12/24 02:08:58;;;;;;;8.68;6.32;;;6.30;99.90;;;;;;496557;238;27384;-71
2021/12/24 02:10:59;;;;;;;9.38;7.00;;;6.30;99.90;;;;;;496525;238;27403;-71
2021/12/24 02:13:00;;;;;;;10.73;7.57;;;6.30;99.90;;;;;;496660;238;27944;-70
2021/12/24 02:15:03;;;;;;;8.43;6.50;;;6.30;99.90;;;;;;496629;238;27986;-71
2021/12/24 02:30:17;;;;;;;9.45;6.62;;;6.20;99.90;;;;;;466935;253;27456;-71
2021/12/24 02:32:18;;;;;;;9.90;7.55;;;6.20;99.90;;;;;;467021;253;27849;-71
2021/12/24 02:34:20;;;;;;;8.95;6.80;;;6.20;99.90;;;;;;467047;253;27971;-71
2021/12/24 02:36:21;;;;;;;10.40;7.87;;;6.20;99.90;;;;;;467070;253;27396;-71
2021/12/24 02:38:22;;;;;;;12.25;7.70;;;6.20;99.90;;;;;;467041;253;27349;-70
2021/12/24 02:40:23;;;;;;;11.32;7.75;;;6.20;99.90;;;;;;467058;254;27388;-71
2021/12/24 02:42:25;;;;;;;11.30;7.30;;;6.20;99.90;;;;;;467032;253;27349;-71
2021/12/24 02:44:26;;;;;;;10.05;6.72;;;6.20;99.90;;;;;;467067;254;27380;-71
2021/12/24 02:46:40;;;;;;;9.10;7.00;;;6.20;99.90;;;;;;471083;237;28618;-71
2021/12/24 02:54:59;;;;;;;15.50;9.00;;;6.30;99.90;;;;;;491209;241;27463;-71
2021/12/24 02:59:27;;;;;;;10.80;7.93;;;6.20;99.90;;;;;;480511;236;27533;-71
2021/12/24 03:01:27;;;;;;;10.98;8.27;;;6.30;99.90;;;;;;480754;247;27533;-71
2021/12/24 03:03:28;;;;;;;13.23;8.05;;;6.30;99.90;;;;;;479400;248;27444;-71
2021/12/24 03:05:29;;;;;;;11.38;8.95;;;6.30;99.90;;;;;;480933;247;27543;-71
2021/12/24 03:07:31;;;;;;;11.95;8.65;;;6.30;99.90;;;;;;479473;248;27858;-71
2021/12/24 03:09:32;;;;;;;13.10;8.45;;;6.30;99.90;;;;;;480853;247;27520;-71
2021/12/24 03:11:33;;;;;;;11.25;8.20;;;6.30;99.90;;;;;;479354;248;27405;-71
2021/12/24 03:13:35;;;;;;;14.80;8.55;;;6.30;99.90;;;;;;480952;247;27519;-71
2021/12/24 03:15:38;;;;;;;12.30;7.53;;;6.40;99.90;;;;;;479432;248;27418;-71
2021/12/24 03:17:37;;;;;;;11.35;8.45;;;6.30;99.90;;;;;;480773;247;27525;-71
2021/12/24 03:19:38;;;;;;;12.10;8.80;;;6.30;99.90;;;;;;479467;248;28021;-71
2021/12/24 03:22:11;;;;;;;14.60;9.30;;;6.30;99.90;;;;;;480905;247;27488;-71
2021/12/24 03:28:24;;;;;;;15.10;9.60;;;6.30;99.90;;;;;;467219;251;27543;-70
2021/12/24 03:30:25;;;;;;;12.37;8.77;;;6.30;99.90;;;;;;467334;254;27554;-70
2021/12/24 03:32:26;;;;;;;11.68;8.93;;;6.30;99.90;;;;;;467302;254;28442;-70
2021/12/24 03:34:28;;;;;;;13.62;9.32;;;6.30;99.90;;;;;;467324;252;27543;-71
2021/12/24 03:36:29;;;;;;;11.43;8.55;;;6.30;99.90;;;;;;467286;254;27554;-71
2021/12/24 03:38:30;;;;;;;11.02;8.63;;;6.30;99.90;;;;;;467317;254;27514;-71
2021/12/24 03:40:31;;;;;;;13.23;9.00;;;6.30;99.90;;;;;;467309;252;27570;-70
2021/12/24 03:42:37;;;;;;;12.65;9.60;;;6.30;99.90;;;;;;467285;254;27980;-70
2021/12/24 03:44:42;;;;;;;12.98;9.10;;;6.30;99.90;;;;;;467117;254;28109;-71
2021/12/24 03:46:59;;;;;;;13.38;8.50;;;6.30;99.90;;;;;;466983;254;27551;-70
2021/12/24 03:48:59;;;;;;;14.25;9.73;;;6.30;99.90;;;;;;466994;254;27531;-70
2021/12/24 03:51:08;;;;;;;14.95;9.55;;;6.30;99.90;;;;;;467068;254;27638;-70
2021/12/24 03:54:55;;;;;;;11.30;8.73;;;6.30;99.90;;;;;;466803;254;27619;-70
2021/12/24 03:55:04;;;;;;;15.65;9.15;;;6.30;99.90;;;;;;466111;254;28102;-70
2021/12/24 03:57:06;;;;;;;12.52;8.68;;;6.30;99.90;;;;;;470296;239;27636;-70
2021/12/24 03:59:07;;;;;;;15.95;10.13;;;6.30;99.90;;;;;;467209;254;27420;-70
2021/12/24 04:01:08;;;;;;;13.70;9.27;;;6.30;99.90;;;;;;467222;253;27460;-70
2021/12/24 04:03:09;;;;;;;14.65;9.90;;;6.30;99.90;;;;;;467219;253;27834;-71
2021/12/24 04:05:11;;;;;;;12.20;8.70;;;6.30;99.90;;;;;;467233;253;27881;-70
2021/12/24 04:07:12;;;;;;;14.02;9.68;;;6.30;99.90;;;;;;467171;253;27472;-70
2021/12/24 04:09:13;;;;;;;17.65;9.82;;;6.40;99.90;;;;;;467142;253;27538;-71
2021/12/24 04:11:14;;;;;;;12.25;9.15;;;6.30;99.90;;;;;;467151;253;27543;-70
2021/12/24 04:13:16;;;;;;;15.80;9.60;;;6.30;99.90;;;;;;467211;253;27448;-71
2021/12/24 04:15:17;;;;;;;13.62;10.40;;;6.30;99.90;;;;;;467227;253;27442;-70
2021/12/24 04:17:18;;;;;;;12.50;9.88;;;6.30;99.90;;;;;;483543;239;28356;-72
2021/12/24 04:19:37;;;;;;;12.43;9.30;;;6.40;99.90;;;;;;486799;244;27513;-72
2021/12/24 04:28:03;;;;;;;10.37;8.37;;;6.40;99.90;;;;;;483964;239;27405;-70
2021/12/24 04:30:11;;;;;;;16.95;10.05;;;6.40;99.90;;;;;;493073;241;27410;-71
2021/12/24 04:32:18;;;;;;;13.88;9.50;;;6.40;99.90;;;;;;492946;241;27919;-70
2021/12/24 04:34:13;;;;;;;12.00;9.43;;;6.40;99.90;;;;;;492576;241;28044;-73
2021/12/24 04:51:49;;;;;;;11.12;8.77;;;6.40;99.90;;;;;;492199;238;27685;-70
2021/12/24 05:03:05;;;;;;;12.30;8.45;;;6.50;99.90;;;;;;492179;241;28593;-69
2021/12/24 05:05:11;;;;;;;13.07;8.80;;;6.50;99.90;;;;;;491941;241;27461;-70
2021/12/24 05:07:23;;;;;;;13.60;8.18;;;6.50;99.90;;;;;;491691;241;27406;-69
2021/12/24 05:09:11;;;;;;;12.07;8.80;;;6.50;99.90;;;;;;491178;241;27921;-71
2021/12/24 05:11:12;;;;;;;10.07;6.90;;;6.50;99.90;;;;;;492069;241;27830;-71
2021/12/24 05:13:11;;;;;;;11.88;7.70;;;6.40;99.90;;;;;;492124;241;27374;-70
2021/12/24 05:15:12;;;;;;;9.45;7.20;;;6.40;99.90;;;;;;492228;241;27402;-70
2021/12/24 05:17:27;;;;;;;13.35;7.62;;;6.40;99.90;;;;;;492225;241;27489;-70
2021/12/24 05:21:44;;;;;;;14.38;8.43;;;6.40;99.90;;;;;;492177;239;27403;-69
2021/12/24 05:23:44;;;;;;;13.10;8.57;;;6.50;99.90;;;;;;492139;241;27419;-69
2021/12/24 05:25:46;;;;;;;9.98;6.93;;;6.50;99.90;;;;;;492199;241;27473;-69
2021/12/24 05:27:47;;;;;;;12.05;7.82;;;6.50;99.90;;;;;;489705;238;27492;-70
2021/12/24 05:29:48;;;;;;;10.07;7.20;;;6.50;99.90;;;;;;492241;241;27503;-71
2021/12/24 05:31:50;;;;;;;13.93;7.85;;;6.50;99.90;;;;;;492127;241;27786;-71
2021/12/24 05:33:51;;;;;;;11.70;8.20;;;6.50;99.90;;;;;;491718;241;28199;-71
2021/12/24 05:35:52;;;;;;;9.30;7.82;;;6.50;99.90;;;;;;490355;238;29186;-71
2021/12/24 05:37:53;;;;;;;12.65;7.15;;;6.50;99.90;;;;;;475244;236;27493;-71
2021/12/24 05:39:55;;;;;;;14.90;7.50;;;6.50;99.90;;;;;;492380;237;27454;-71
2021/12/24 05:41:56;;;;;;;10.50;6.57;;;6.50;99.90;;;;;;474780;247;27478;-71
2021/12/24 05:43:59;;;;;;;13.68;7.30;;;6.50;99.90;;;;;;467020;254;27557;-71
2021/12/24 05:45:58;;;;;;;9.43;7.25;;;6.50;99.90;;;;;;471542;251;27399;-70
2021/12/24 05:48:00;;;;;;;10.23;7.28;;;6.50;99.90;;;;;;471427;252;27936;-71
2021/12/24 05:50:01;;;;;;;9.75;7.00;;;6.50;99.90;;;;;;471571;251;27439;-71
2021/12/24 05:52:06;;;;;;;12.37;7.22;;;6.50;99.90;;;;;;471600;251;28012;-71
2021/12/24 05:54:08;;;;;;;8.57;6.53;;;6.50;99.90;;;;;;471557;251;27469;-71
2021/12/24 05:56:09;;;;;;;8.35;6.60;;;6.50;99.90;;;;;;471578;251;27498;-71
2021/12/24 05:58:10;;;;;;;9.70;7.18;;;6.50;99.90;;;;;;471595;251;27416;-71
2021/12/24 06:00:11;;;;;;;10.38;7.37;;;6.50;99.90;;;;;;471602;251;27446;-71
2021/12/24 06:02:13;;;;;;;12.02;7.22;;;6.50;99.90;;;;;;471565;251;27443;-71
2021/12/24 06:04:14;;;;;;;12.80;8.48;;;6.50;99.90;;;;;;471574;251;27894;-71
2021/12/24 06:06:15;;;;;;;9.75;7.40;;;6.50;99.90;;;;;;471612;251;28020;-71
2021/12/24 06:08:16;;;;;;;9.93;6.68;;;6.50;99.90;;;;;;471583;251;27417;-71
2021/12/24 06:10:18;;;;;;;9.50;7.20;;;6.50;99.90;;;;;;471533;251;27515;-71
2021/12/24 06:12:19;;;;;;;9.23;7.40;;;6.50;99.90;;;;;;471585;251;27510;-71
2021/12/24 06:14:20;;;;;;;8.57;6.40;;;6.50;99.90;;;;;;471520;251;27429;-71
2021/12/24 06:16:21;;;;;;;22.27;8.10;;;6.50;99.90;;;;;;471567;251;27641;-71
2021/12/24 06:18:27;;;;;;;11.12;6.97;;;6.50;99.90;;;;;;471586;251;28022;-71
2021/12/24 06:20:27;;;;;;;9.30;6.35;;;6.50;99.90;;;;;;471847;252;27377;-71
2021/12/24 06:22:28;;;;;;;15.55;7.55;;;6.50;99.90;;;;;;475234;250;28010;-71
2021/12/24 06:24:32;;;;;;;12.43;8.20;;;6.50;99.90;;;;;;475273;247;27851;-69
2021/12/24 06:26:30;;;;;;;12.68;8.68;;;6.50;99.90;;;;;;474954;250;27424;-71
2021/12/24 06:28:32;;;;;;;13.32;8.43;;;6.50;99.90;;;;;;475173;250;28055;-71
2021/12/24 06:30:33;;;;;;;10.55;8.40;;;6.60;99.90;;;;;;475184;250;27519;-71
2021/12/24 06:32:34;;;;;;;11.82;9.30;;;6.50;99.90;;;;;;475258;250;27524;-70
2021/12/24 06:34:36;;;;;;;10.02;7.93;;;6.50;99.90;;;;;;475320;250;27377;-70
2021/12/24 06:36:40;;;;;;;11.48;7.90;;;6.60;99.90;;;;;;475306;250;27507;-71
2021/12/24 06:38:44;;;;;;;10.82;8.30;;;6.50;99.90;;;;;;475346;250;27475;-72
2021/12/24 06:40:48;;;;;;;10.35;8.88;;;6.50;99.90;;;;;;475294;250;27391;-71
2021/12/24 06:42:46;;;;;;;10.85;7.22;;;6.50;99.90;;;;;;474819;250;27419;-71
2021/12/24 06:44:48;;;;;;;11.50;8.18;;;6.50;99.90;;;;;;475170;250;27405;-69
2021/12/24 06:46:49;;;;;;;12.13;8.00;;;6.50;99.90;;;;;;475266;250;28019;-70
2021/12/24 06:48:56;;;;;;;12.68;7.57;;;6.60;99.90;;;;;;475255;250;27415;-70
2021/12/24 06:50:52;;;;;;;14.13;8.48;;;6.60;99.90;;;;;;474874;250;27384;-70
2021/12/24 06:52:53;;;;;;;13.65;8.50;;;6.50;99.90;;;;;;475250;250;27451;-71
2021/12/24 06:54:55;;;;;;;13.40;7.05;;;6.60;99.90;;;;;;475177;250;27469;-70
2021/12/24 06:56:58;;;;;;;10.68;7.65;;;6.50;99.90;;;;;;475283;250;27921;-70
2021/12/24 06:58:59;;;;;;;11.93;7.43;;;6.50;99.90;;;;;;475269;250;28006;-70
2021/12/24 07:01:00;;;;;;;9.55;7.07;;;6.50;99.90;;;;;;475297;247;27500;-70
2021/12/24 07:03:02;;;;;;;12.40;8.07;;;6.50;99.90;;;;;;475268;250;27396;-70
2021/12/24 07:05:03;;;;;;;13.15;9.15;;;6.50;99.90;;;;;;475223;250;27444;-70
2021/12/24 07:07:04;;;;;;;16.10;9.73;;;6.50;99.90;;;;;;475293;250;27397;-69
2021/12/24 07:09:06;;;;;;;11.75;7.78;;;6.50;99.90;;;;;;475282;250;27909;-69
2021/12/24 07:11:07;;;;;;;11.75;8.55;;;6.50;99.90;;;;;;475309;250;28004;-70
2021/12/24 07:13:08;;;;;;;17.52;8.93;;;6.50;99.90;;;;;;475303;250;27377;-70
2021/12/24 07:15:09;;;;;;;10.30;8.05;;;6.50;99.90;;;;;;475290;250;27504;-70
2021/12/24 07:17:11;;;;;;;9.80;7.12;;;6.50;99.90;;;;;;475249;247;27487;-69
2021/12/24 07:19:12;;;;;;;11.40;6.62;;;6.40;99.90;;;;;;475291;250;27417;-69
2021/12/24 07:21:13;;;;;;;11.10;8.07;;;6.40;99.90;;;;;;475279;250;27908;-69
2021/12/24 07:23:14;;;;;;;10.70;7.62;;;6.40;99.90;;;;;;475295;250;27855;-70
2021/12/24 07:25:16;;;;;;;10.43;7.55;;;6.40;99.90;;;;;;475253;247;27503;-70
2021/12/24 07:27:19;;;;;;;14.45;7.95;;;6.40;99.90;;;;;;475263;250;27480;-69
2021/12/24 07:29:18;;;;;;;9.10;6.93;;;6.40;99.90;;;;;;475114;250;27396;-70
2021/12/24 07:31:20;;;;;;;10.52;7.10;;;6.40;99.90;;;;;;475261;250;27456;-69
2021/12/24 07:33:21;;;;;;;9.65;7.25;;;6.30;99.90;;;;;;475258;250;27488;-70
2021/12/24 07:35:22;;;;;;;8.90;6.70;;;6.40;99.90;;;;;;475244;250;28011;-69
2021/12/24 07:37:23;;;;;;;12.13;7.10;;;6.40;99.90;;;;;;475275;250;28698;-69
2021/12/24 07:39:24;;;;;;;10.20;6.80;;;6.40;99.90;;;;;;475295;250;27399;-69
2021/12/24 07:41:26;;;;;;;9.93;7.60;;;6.40;99.90;;;;;;475244;247;27428;-69
2021/12/24 07:43:27;;;;;;;13.80;9.50;;;6.30;99.90;;;;;;475208;250;27467;-70
2021/12/24 07:45:28;;;;;;;10.43;8.70;;;6.40;99.90;;;;;;475264;250;27526;-70
2021/12/24 07:47:37;;;;;;;14.18;8.30;;;6.30;99.90;;;;;;475249;247;28314;-70
2021/12/24 07:49:37;;;;;;;10.65;7.25;;;6.30;99.90;;;;;;474342;250;27853;-70
2021/12/24 07:53:59;;;;;;;10.80;8.40;;;6.30;99.90;;;;;;475242;247;27381;-70
2021/12/24 07:55:58;;;;;;;12.20;8.95;;;6.30;99.90;;;;;;474783;249;27865;-69
2021/12/24 07:57:54;;;;;;;13.90;8.52;;;6.30;99.90;;;;;;474572;250;27527;-70
2021/12/24 07:59:58;;;;;;;8.88;7.55;;;6.30;99.90;;;;;;475268;250;27388;-70
2021/12/24 08:01:57;;;;;;;9.88;7.75;;;6.30;99.90;;;;;;475097;250;27520;-70
2021/12/24 08:03:58;;;;;;;8.70;6.68;;;6.30;99.90;;;;;;475286;250;27492;-70
2021/12/24 08:05:59;;;;;;;10.85;7.50;;;6.30;99.90;;;;;;475179;250;27411;-69
2021/12/24 08:08:00;;;;;;;8.93;6.65;;;6.20;99.90;;;;;;475241;250;27920;-70
2021/12/24 08:10:01;;;;;;;10.00;7.22;;;6.30;99.90;;;;;;475279;250;28024;-69
2021/12/24 08:12:03;;;;;;;7.35;6.10;;;6.30;99.90;;;;;;475253;250;27429;-70
2021/12/24 08:14:05;;;;;;;10.80;6.62;;;6.30;99.90;;;;;;475242;250;27496;-69
2021/12/24 08:16:05;;;;;;;11.05;6.18;;;6.30;99.90;;;;;;475151;250;27388;-73
2021/12/24 08:18:07;;;;;;;11.02;6.82;;;6.30;99.90;;;;;;475216;250;27427;-72
2021/12/24 08:20:08;;;;;;;10.70;7.50;;;6.30;99.90;;;;;;475235;250;28014;-71
2021/12/24 08:22:10;;;;;;;14.13;7.30;;;6.30;99.90;;;;;;475239;250;27915;-72
2021/12/24 08:24:10;;;;;;;8.20;6.65;;;6.30;99.90;;;;;;475168;249;27432;-72
2021/12/24 08:26:12;;;;;;;10.80;7.28;;;6.30;99.90;;;;;;475243;250;27396;-71
2021/12/24 08:28:13;;;;;;;10.95;8.45;;;6.30;99.90;;;;;;475249;250;27544;-73
2021/12/24 08:30:14;;;;;;;11.45;7.35;;;6.30;99.90;;;;;;475208;250;27437;-72
2021/12/24 08:32:15;;;;;;;12.77;8.02;;;6.30;99.90;;;;;;475250;250;27971;-72
2021/12/24 08:34:18;;;;;;;9.10;7.20;;;6.30;99.90;;;;;;475226;250;27955;-72
2021/12/24 08:36:18;;;;;;;14.60;7.32;;;6.30;99.90;;;;;;475203;250;27468;-71
2021/12/24 08:38:20;;;;;;;11.20;7.68;;;6.30;99.90;;;;;;475233;250;27510;-72
2021/12/24 08:40:20;;;;;;;9.27;7.30;;;6.30;99.90;;;;;;475189;250;27497;-71
2021/12/24 08:42:22;;;;;;;9.15;6.93;;;6.30;99.90;;;;;;475216;247;27542;-71
2021/12/24 08:44:23;;;;;;;10.15;7.28;;;6.30;99.90;;;;;;475236;250;27569;-71
2021/12/24 08:46:24;;;;;;;12.00;7.90;;;6.30;99.90;;;;;;475244;250;27871;-72
2021/12/24 08:48:25;;;;;;;11.45;6.93;;;6.30;99.90;;;;;;475251;250;27927;-73
2021/12/24 08:50:27;;;;;;;11.10;6.80;;;6.30;99.90;;;;;;475245;250;27456;-72
2021/12/24 08:52:28;;;;;;;9.68;7.00;;;6.40;99.90;;;;;;475234;250;27421;-73
2021/12/24 08:54:29;;;;;;;7.80;6.60;;;6.30;99.90;;;;;;475219;250;27790;-74
2021/12/24 08:56:30;;;;;;;10.10;7.50;;;6.40;99.90;;;;;;475245;250;27389;-72
2021/12/24 08:58:37;;;;;;;8.50;6.80;;;6.40;99.90;;;;;;475244;250;27876;-72
2021/12/24 09:00:33;;;;;;;14.95;8.15;;;6.30;99.90;;;;;;474569;250;27946;-71
2021/12/24 09:02:34;;;;;;;12.15;7.18;;;6.40;99.90;;;;;;475225;250;27433;-71
2021/12/24 09:04:35;;;;;;;10.95;8.10;;;6.40;99.90;;;;;;475271;247;27421;-75
2021/12/24 09:06:37;;;;;;;17.65;8.93;;;6.40;99.90;;;;;;475224;250;27476;-71
2021/12/24 09:08:42;;;;;;;13.00;8.60;;;6.40;99.90;;;;;;475277;250;27435;-73
2021/12/24 09:10:39;;;;;;;10.10;7.90;;;6.40;99.90;;;;;;475044;247;28735;-72
2021/12/24 09:12:43;;;;;;;13.50;8.82;;;6.40;99.90;;;;;;475279;250;28011;-72
2021/12/24 09:14:42;;;;;;;13.10;8.93;;;6.40;99.90;;;;;;475144;247;27419;-72
2021/12/24 09:16:43;;;;;;;13.07;7.35;;;6.40;99.90;;;;;;475292;250;27418;-71
2021/12/24 09:18:45;;;;;;;13.05;9.23;;;6.50;99.90;;;;;;475200;250;27501;-72
2021/12/24 09:20:46;;;;;;;17.55;9.48;;;6.40;99.90;;;;;;475292;250;27484;-71
2021/12/24 09:22:48;;;;;;;18.15;9.25;;;6.50;99.90;;;;;;475229;250;27955;-71
2021/12/24 09:24:50;;;;;;;11.70;8.60;;;6.50;99.90;;;;;;475210;249;28017;-70
2021/12/24 09:26:49;;;;;;;12.82;7.32;;;6.40;99.90;;;;;;475147;250;27476;-71
2021/12/24 09:28:51;;;;;;;11.90;7.85;;;6.40;99.90;;;;;;475204;250;27427;-71
2021/12/24 09:30:53;;;;;;;12.23;7.95;;;6.40;99.90;;;;;;475235;250;27397;-72
2021/12/24 09:32:53;;;;;;;9.45;7.20;;;6.40;99.90;;;;;;475214;250;27380;-71
2021/12/24 09:34:55;;;;;;;12.87;7.73;;;6.40;99.90;;;;;;475250;250;28061;-72
2021/12/24 09:36:56;;;;;;;13.77;8.60;;;6.40;99.90;;;;;;475220;250;29217;-71
2021/12/24 09:38:57;;;;;;;11.10;7.90;;;6.40;99.90;;;;;;475216;250;27538;-71
2021/12/24 09:40:58;;;;;;;12.60;8.48;;;6.40;99.90;;;;;;475228;250;27393;-71
2021/12/24 09:42:59;;;;;;;13.35;8.45;;;6.40;99.90;;;;;;475175;250;27380;-71
2021/12/24 09:45:01;;;;;;;11.38;8.25;;;6.40;99.90;;;;;;475258;250;27464;-72
2021/12/24 09:47:02;;;;;;;9.25;6.87;;;6.40;99.90;;;;;;475229;250;27875;-72
2021/12/24 09:49:04;;;;;;;14.15;8.40;;;6.40;99.90;;;;;;475216;250;27919;-72
2021/12/24 09:51:04;;;;;;;14.18;7.78;;;6.40;99.90;;;;;;475191;250;27434;-72
2021/12/24 09:53:06;;;;;;;9.75;7.53;;;6.50;99.90;;;;;;475232;250;27380;-72
2021/12/24 09:55:07;;;;;;;10.10;7.22;;;6.50;99.90;;;;;;475214;250;27550;-72
2021/12/24 09:57:08;;;;;;;9.98;7.00;;;6.50;99.90;;;;;;475245;250;27396;-72
2021/12/24 09:59:10;;;;;;;8.10;6.47;;;6.50;99.90;;;;;;475233;250;27452;-72
2021/12/24 10:01:11;;;;;;;7.15;5.72;;;6.50;99.90;;;;;;475224;250;28558;-72
2021/12/24 10:03:12;;;;;;;7.80;5.90;;;6.50;99.90;;;;;;475246;250;27860;-72
2021/12/24 10:05:13;;;;;;;7.15;5.82;;;6.60;99.90;;;;;;475212;250;27535;-72
2021/12/24 10:07:16;;;;;;;7.85;5.87;;;6.60;99.90;;;;;;475204;250;27519;-71
2021/12/24 10:09:16;;;;;;;6.90;6.03;;;6.60;99.90;;;;;;475148;250;27441;-72
2021/12/24 10:11:20;;;;;;;7.60;6.32;;;6.50;99.90;;;;;;475227;250;27376;-73
2021/12/24 10:13:18;;;;;;;11.48;6.35;;;6.60;99.90;;;;;;475041;250;27393;-72
2021/12/24 10:15:20;;;;;;;7.57;6.50;;;6.60;99.90;;;;;;475252;250;27995;-73
2021/12/24 10:17:21;;;;;;;8.00;6.40;;;6.60;99.90;;;;;;475218;250;27927;-71
2021/12/24 10:19:22;;;;;;;8.38;6.15;;;6.60;99.90;;;;;;475184;250;27511;-72
2021/12/24 10:21:23;;;;;;;6.32;5.50;;;6.60;99.90;;;;;;475240;250;27423;-73
2021/12/24 10:23:25;;;;;;;9.45;6.22;;;6.60;99.90;;;;;;475237;250;27495;-72
2021/12/24 10:25:27;;;;;;;6.00;5.40;;;6.60;99.90;;;;;;475232;250;27424;-72
2021/12/24 10:27:27;;;;;;;9.20;5.40;;;6.70;99.90;;;;;;475154;250;27379;-72
2021/12/24 10:29:28;;;;;;;6.95;5.47;;;6.60;99.90;;;;;;475048;250;29053;-72
2021/12/24 10:31:30;;;;;;;6.97;5.20;;;6.60;99.90;;;;;;475115;250;28069;-72
2021/12/24 10:33:31;;;;;;;6.32;5.00;;;6.60;99.90;;;;;;475237;250;29199;-71
2021/12/24 10:35:32;;;;;;;6.62;5.00;;;6.70;99.90;;;;;;475295;250;27492;-72
2021/12/24 10:37:33;;;;;;;6.43;5.32;;;6.60;99.90;;;;;;475296;250;27392;-71
2021/12/24 10:39:35;;;;;;;11.05;7.10;;;6.60;99.90;;;;;;475233;250;27439;-72
2021/12/24 10:41:36;;;;;;;5.70;4.75;;;6.60;99.90;;;;;;475154;250;23141;-72
2021/12/24 10:43:39;;;;;;;5.35;4.85;;;6.60;99.90;;;;;;475290;250;27409;-71
2021/12/24 10:45:38;;;;;;;5.87;5.28;;;6.70;99.90;;;;;;474262;250;36499;-72
2021/12/24 10:47:41;;;;;;;5.90;4.50;;;6.70;99.90;;;;;;471546;250;36450;-71
2021/12/24 10:51:54;;;;;;;5.07;4.57;;;6.70;99.90;;;;;;475267;250;27496;-72
2021/12/24 10:53:43;;;;;;;6.00;4.80;;;6.70;99.90;;;;;;474456;249;27511;-72
2021/12/24 10:55:45;;;;;;;4.87;4.32;;;6.70;99.90;;;;;;475271;250;28823;-73
2021/12/24 10:57:46;;;;;;;4.78;4.10;;;6.70;99.90;;;;;;475229;250;27411;-72
2021/12/24 10:59:50;;;;;;;5.82;4.78;;;6.70;99.90;;;;;;475248;247;27376;-72
2021/12/24 11:01:51;;;;;;;6.03;4.90;;;6.70;99.90;;;;;;475239;250;27415;-72
2021/12/24 11:03:52;;;;;;;5.22;4.43;;;6.70;99.90;;;;;;475238;250;29310;-72
2021/12/24 11:05:54;;;;;;;4.90;4.40;;;6.70;99.90;;;;;;475226;250;27898;-72
2021/12/24 11:07:55;;;;;;;4.67;4.10;;;6.70;99.90;;;;;;475269;250;27446;-72
2021/12/24 11:09:56;;;;;;;4.45;4.05;;;6.70;99.90;;;;;;475221;250;28737;-71
2021/12/24 11:11:58;;;;;;;5.43;4.78;;;6.70;99.90;;;;;;475250;250;27549;-72
2021/12/24 11:13:59;;;;;;;4.40;4.00;;;6.70;99.90;;;;;;475247;250;27380;-71
2021/12/24 11:16:02;;;;;;;4.90;4.40;;;6.70;99.90;;;;;;475270;250;27460;-72
2021/12/24 11:18:01;;;;;;;5.23;4.20;;;6.70;99.90;;;;;;475170;247;27977;-72
2021/12/24 11:20:03;;;;;;;4.20;3.80;;;6.80;99.90;;;;;;475280;247;28440;-72
2021/12/24 11:22:04;;;;;;;4.00;3.60;;;6.90;99.90;;;;;;475250;250;28026;-72
2021/12/24 11:24:05;;;;;;;5.03;4.12;;;6.80;99.90;;;;;;475292;250;27504;-71
2021/12/24 11:26:06;;;;;;;5.18;4.40;;;6.80;99.90;;;;;;475263;248;27431;-73
2021/12/24 11:28:08;;;;;;;3.60;3.30;;;6.90;99.90;;;;;;471561;250;36005;-74
2021/12/24 11:30:09;;;;;;;4.40;3.97;;;6.90;99.90;;;;;;475299;250;27389;-75
2021/12/24 11:32:10;;;;;;;6.00;4.53;;;6.90;99.90;;;;;;475282;250;27739;-75
2021/12/24 11:34:11;;;;;;;4.30;3.90;;;7.00;99.90;;;;;;475294;250;28732;-75
2021/12/24 11:36:12;;;;;;;4.33;3.70;;;7.00;99.90;;;;;;475287;250;27902;-75
2021/12/24 11:38:14;;;;;;;3.97;3.67;;;6.90;99.90;;;;;;475288;250;28061;-74
2021/12/24 11:40:15;;;;;;;4.30;3.90;;;6.90;99.90;;;;;;475291;250;28000;-74
2021/12/24 11:42:16;;;;;;;5.05;4.05;;;6.90;99.90;;;;;;475237;250;29069;-73
2021/12/24 11:44:18;;;;;;;4.40;4.00;;;6.90;99.90;;;;;;475307;250;27384;-73
2021/12/24 11:46:19;;;;;;;6.03;4.93;;;6.90;99.90;;;;;;475284;250;27964;-73
2021/12/24 11:48:20;;;;;;;7.30;4.90;;;6.90;99.90;;;;;;475314;250;28749;-74
2021/12/24 11:50:21;;;;;;;6.63;5.30;;;6.90;99.90;;;;;;475320;250;28778;-74
2021/12/24 11:52:25;;;;;;;5.80;4.80;;;6.90;99.90;;;;;;475321;250;27968;-74
2021/12/24 11:54:24;;;;;;;7.70;5.63;;;6.90;99.90;;;;;;475127;250;28151;-74
2021/12/24 11:56:25;;;;;;;5.82;5.22;;;6.90;99.90;;;;;;475293;250;27561;-74
2021/12/24 11:58:27;;;;;;;5.90;5.30;;;6.90;99.90;;;;;;475300;250;27384;-74
2021/12/24 12:00:27;;;;;;;5.90;5.13;;;6.90;99.90;;;;;;475254;249;27972;-75
2021/12/24 12:02:29;;;;;;;7.17;4.97;;;6.90;99.90;;;;;;475275;250;29272;-73
2021/12/24 12:04:30;;;;;;;5.90;5.32;;;6.90;99.90;;;;;;475277;250;28506;-73
2021/12/24 12:06:34;;;;;;;6.60;5.70;;;6.80;99.90;;;;;;475247;250;27428;-73
2021/12/24 12:08:40;;;;;;;6.83;5.80;;;6.80;99.90;;;;;;475254;250;28553;-73